Time;durP1;ratioP1;P1;durP2;ratioP2;P2;SDS_P1;SDS_P2;PMS_P1;PMS_P2;Temp;Humidity;BMP_temperature;BMP_pressure;BME280_temperature;BME280_humidity;BME280_pressure;Samples;Min_cycle;Max_cycle;Signal;HPM_P1;HPM_P2
2023/04/12 00:01:51;;;;;;;7.97;2.30;;;;;;;5.41;70.74;100967.06;7393038;19;20065;-61
2023/04/12 00:04:17;;;;;;;5.35;2.15;;;;;;;5.37;70.36;100954.16;7390790;19;20033;-59
2023/04/12 00:06:47;;;;;;;7.22;2.38;;;;;;;5.22;70.83;100948.81;7394689;19;20474;-60
2023/04/12 00:09:14;;;;;;;9.07;2.47;;;;;;;5.29;71.14;100938.81;7394917;19;20091;-60
2023/04/12 00:11:40;;;;;;;6.78;2.40;;;;;;;5.44;70.35;100930.03;7395411;19;20003;-59
2023/04/12 00:14:06;;;;;;;5.30;2.13;;;;;;;5.41;69.72;100931.97;7390887;19;20348;-59
2023/04/12 00:16:32;;;;;;;9.73;2.30;;;;;;;5.44;69.69;100934.41;7393916;19;20549;-60
2023/04/12 00:18:58;;;;;;;7.60;2.20;;;;;;;5.53;69.26;100926.84;7394601;19;20027;-60
2023/04/12 00:21:27;;;;;;;7.90;2.53;;;;;;;5.46;69.12;100919.38;7393380;19;19999;-59
2023/04/12 00:23:53;;;;;;;8.63;2.78;;;;;;;5.35;69.47;100917.34;7392990;19;20347;-59
2023/04/12 00:26:20;;;;;;;9.40;2.42;;;;;;;5.37;69.48;100914.66;7394798;19;20095;-60
2023/04/12 00:28:46;;;;;;;11.80;3.10;;;;;;;5.46;68.60;100904.41;7394189;19;20003;-59
2023/04/12 00:31:12;;;;;;;9.75;3.65;;;;;;;5.46;68.49;100890.41;7392280;19;20007;-60
2023/04/12 00:33:37;;;;;;;11.15;4.22;;;;;;;5.53;68.35;100887.31;7391639;19;20010;-59
2023/04/12 00:36:03;;;;;;;10.88;3.78;;;;;;;5.56;68.13;100878.38;7393680;19;19999;-60
2023/04/12 00:38:29;;;;;;;8.20;3.47;;;;;;;5.50;67.68;100874.31;7393183;19;20187;-59
2023/04/12 00:40:55;;;;;;;8.80;3.13;;;;;;;5.46;67.50;100872.78;7393257;19;20003;-60
2023/04/12 00:43:21;;;;;;;8.00;2.78;;;;;;;5.51;67.75;100864.63;7392689;19;20016;-60
2023/04/12 00:45:48;;;;;;;9.82;2.70;;;;;;;5.53;67.11;100860.97;7391884;19;20006;-59
2023/04/12 00:48:15;;;;;;;8.10;2.58;;;;;;;5.44;67.45;100856.25;7393591;19;20074;-60
2023/04/12 00:50:43;;;;;;;8.85;2.60;;;;;;;5.46;67.53;100846.44;7393377;19;20003;-60
2023/04/12 00:53:12;;;;;;;7.80;2.30;;;;;;;5.52;67.41;100850.53;7392361;19;20463;-60
2023/04/12 00:55:40;;;;;;;9.52;2.50;;;;;;;5.56;67.13;100844.97;7391477;19;20062;-60
2023/04/12 00:58:06;;;;;;;7.90;2.28;;;;;;;5.42;67.19;100833.56;7390481;19;20354;-60
2023/04/12 01:00:33;;;;;;;6.78;2.13;;;;;;;5.44;67.06;100827.25;7391721;19;19994;-60
2023/04/12 01:03:01;;;;;;;10.73;2.35;;;;;;;5.29;67.16;100826.38;7393184;19;19999;-60
2023/04/12 01:05:27;;;;;;;6.82;2.03;;;;;;;5.46;66.52;100820.09;7393231;19;20003;-60
2023/04/12 01:08:00;;;;;;;7.00;2.30;;;;;;;5.57;65.86;100814.19;7393175;19;20403;-60
2023/04/12 01:10:38;;;;;;;8.18;2.40;;;;;;;5.55;66.31;100813.41;7392574;19;19999;-60
2023/04/12 01:13:27;;;;;;;6.85;2.13;;;;;;;5.62;65.62;100811.28;7392231;19;20009;-60
2023/04/12 01:15:58;;;;;;;7.20;2.08;;;;;;;5.66;65.76;100799.59;7392245;19;20003;-60
2023/04/12 01:18:28;;;;;;;9.15;2.00;;;;;;;5.61;65.45;100799.03;7392941;19;20022;-61
2023/04/12 01:21:02;;;;;;;7.75;1.98;;;;;;;5.65;65.56;100779.47;7392559;19;20023;-61
2023/04/12 01:23:46;;;;;;;7.40;1.92;;;;;;;5.52;65.81;100777.59;7391762;19;20003;-62
2023/04/12 01:26:33;;;;;;;10.82;2.42;;;;;;;5.61;65.82;100781.44;7392260;19;20011;-61
2023/04/12 01:29:03;;;;;;;8.10;2.17;;;;;;;5.51;65.98;100778.50;7391538;19;20000;-61
2023/04/12 01:31:30;;;;;;;10.15;2.45;;;;;;;5.57;65.95;100764.97;7391993;19;20371;-61
2023/04/12 01:33:58;;;;;;;9.35;2.22;;;;;;;5.55;66.18;100755.44;7391505;19;20003;-60
2023/04/12 01:36:26;;;;;;;7.50;2.40;;;;;;;5.73;65.79;100756.13;7392184;19;20024;-60
2023/04/12 01:38:53;;;;;;;7.80;2.30;;;;;;;5.72;65.28;100749.16;7391959;19;20015;-60
2023/04/12 01:41:19;;;;;;;9.75;2.83;;;;;;;5.54;65.53;100746.72;7389921;19;20033;-60
2023/04/12 01:43:46;;;;;;;7.78;2.20;;;;;;;5.60;65.67;100745.50;7391473;19;20443;-60
2023/04/12 01:46:17;;;;;;;6.57;2.22;;;;;;;5.69;64.85;100734.38;7391489;19;20058;-60
2023/04/12 01:48:51;;;;;;;8.43;2.05;;;;;;;5.68;64.14;100731.84;7390488;19;20058;-60
2023/04/12 01:51:26;;;;;;;6.15;2.10;;;;;;;5.71;64.33;100729.03;7392093;19;19999;-60
2023/04/12 01:54:03;;;;;;;6.20;1.75;;;;;;;5.70;63.80;100720.25;7390244;19;19994;-59
2023/04/12 01:56:33;;;;;;;5.57;1.98;;;;;;;5.62;64.25;100716.41;7389617;19;20003;-60
2023/04/12 01:59:00;;;;;;;5.40;2.00;;;;;;;5.70;64.33;100709.69;7390749;19;20491;-60
2023/04/12 02:01:28;;;;;;;8.15;2.50;;;;;;;5.71;63.99;100713.22;7389425;19;20498;-60
2023/04/12 02:03:55;;;;;;;8.68;2.08;;;;;;;5.70;63.88;100707.06;7390020;19;20002;-60
2023/04/12 02:06:21;;;;;;;8.18;2.42;;;;;;;5.70;64.05;100703.59;7391366;19;20006;-60
2023/04/12 02:08:47;;;;;;;7.60;2.22;;;;;;;5.66;63.73;100697.66;7391519;19;20017;-60
2023/04/12 02:11:16;;;;;;;5.95;2.20;;;;;;;5.67;64.07;100694.09;7398898;19;20062;-60
2023/04/12 02:13:41;;;;;;;8.48;2.25;;;;;;;5.63;64.02;100691.72;7396534;19;20478;-60
2023/04/12 02:16:09;;;;;;;7.65;2.53;;;;;;;5.55;64.63;100679.03;7398661;19;20002;-60
2023/04/12 02:18:35;;;;;;;8.07;2.20;;;;;;;5.60;64.57;100670.88;7398228;19;19994;-60
2023/04/12 02:21:00;;;;;;;11.43;2.50;;;;;;;5.63;64.64;100671.53;7396313;19;20025;-59
2023/04/12 02:23:26;;;;;;;6.65;2.58;;;;;;;5.61;64.95;100662.84;7396576;19;20003;-60
2023/04/12 02:25:51;;;;;;;7.18;2.53;;;;;;;5.65;64.55;100651.19;7397979;19;20013;-60
2023/04/12 02:28:17;;;;;;;6.55;2.75;;;;;;;5.65;64.45;100647.69;7397963;19;20007;-59
2023/04/12 02:30:43;;;;;;;7.72;2.47;;;;;;;5.70;64.63;100658.78;7397208;19;20003;-60
2023/04/12 02:33:08;;;;;;;7.60;2.40;;;;;;;5.65;64.97;100647.69;7397991;19;20029;-60
2023/04/12 02:35:35;;;;;;;9.18;2.70;;;;;;;5.71;64.82;100644.69;7398371;19;20455;-60
2023/04/12 02:38:08;;;;;;;8.00;2.40;;;;;;;5.60;64.82;100637.44;7397986;19;20408;-60
2023/04/12 02:40:37;;;;;;;8.13;2.70;;;;;;;5.61;64.76;100625.97;7396999;19;20127;-60
2023/04/12 02:43:02;;;;;;;11.27;2.65;;;;;;;5.63;64.88;100621.44;7396994;19;20396;-60
2023/04/12 02:45:28;;;;;;;7.65;2.53;;;;;;;5.61;64.87;100615.41;7394904;19;19994;-60
2023/04/12 02:47:53;;;;;;;7.57;2.70;;;;;;;5.54;65.28;100608.84;7398269;19;20006;-60
2023/04/12 02:50:19;;;;;;;7.25;2.30;;;;;;;5.45;65.30;100598.91;7397261;19;20396;-60
2023/04/12 02:52:45;;;;;;;7.40;2.65;;;;;;;5.45;65.21;100583.94;7397692;19;20015;-60
2023/04/12 02:55:11;;;;;;;8.63;2.75;;;;;;;5.55;65.08;100578.91;7396064;19;20003;-60
2023/04/12 02:57:36;;;;;;;8.00;2.28;;;;;;;5.46;65.24;100576.88;7398085;19;20447;-60
2023/04/12 03:00:07;;;;;;;6.97;2.28;;;;;;;5.46;64.99;100574.25;7396898;19;20495;-60
2023/04/12 03:02:33;;;;;;;6.95;2.50;;;;;;;5.51;64.88;100558.97;7395184;19;20058;-61
2023/04/12 03:04:59;;;;;;;7.05;2.25;;;;;;;5.43;64.99;100555.97;7397299;19;20443;-60
2023/04/12 03:07:24;;;;;;;11.68;2.92;;;;;;;5.44;65.12;100547.13;7396707;19;20002;-60
2023/04/12 03:09:50;;;;;;;6.45;2.53;;;;;;;5.46;65.11;100547.88;7396560;19;20002;-61
2023/04/12 03:12:16;;;;;;;8.35;2.50;;;;;;;5.55;64.63;100539.38;7397330;19;19999;-61
2023/04/12 03:14:42;;;;;;;6.40;2.20;;;;;;;5.53;64.74;100533.38;7394117;19;19999;-61
2023/04/12 03:17:08;;;;;;;7.05;2.53;;;;;;;5.52;64.74;100526.44;7394883;19;20077;-61
2023/04/12 03:19:35;;;;;;;11.48;3.17;;;;;;;5.61;64.87;100524.97;7396613;19;19999;-61
2023/04/12 03:22:03;;;;;;;8.40;2.40;;;;;;;5.55;65.23;100527.09;7393127;19;20018;-61
2023/04/12 03:24:28;;;;;;;9.90;2.88;;;;;;;5.52;65.13;100522.00;7394658;19;19994;-61
2023/04/12 03:26:54;;;;;;;9.20;2.90;;;;;;;5.68;64.79;100513.09;7396294;19;20002;-61
2023/04/12 03:29:20;;;;;;;10.60;2.83;;;;;;;5.62;64.79;100511.69;7395776;19;20340;-61
2023/04/12 03:31:46;;;;;;;7.05;2.55;;;;;;;5.47;65.27;100503.00;7396427;19;20003;-61
2023/04/12 03:34:12;;;;;;;9.00;3.10;;;;;;;5.44;65.25;100508.47;7394793;19;20038;-61
2023/04/12 03:36:38;;;;;;;8.95;3.20;;;;;;;5.39;65.45;100494.75;7396004;19;20009;-61
2023/04/12 03:39:03;;;;;;;9.30;2.90;;;;;;;5.46;65.36;100497.84;7395008;19;20075;-61
2023/04/12 03:41:29;;;;;;;10.23;3.25;;;;;;;5.56;65.27;100488.41;7394261;19;19995;-61
2023/04/12 03:43:55;;;;;;;8.50;3.20;;;;;;;5.49;65.20;100501.13;7394291;19;19998;-61
2023/04/12 03:46:20;;;;;;;8.25;2.88;;;;;;;5.47;65.23;100481.06;7396092;19;20087;-61
2023/04/12 03:48:46;;;;;;;10.52;3.00;;;;;;;5.50;65.06;100479.09;7394137;19;19999;-61
2023/04/12 03:51:11;;;;;;;6.57;2.63;;;;;;;5.48;64.76;100480.16;7395966;19;20462;-61
2023/04/12 03:53:37;;;;;;;10.57;3.00;;;;;;;5.36;65.58;100471.22;7392478;19;20481;-61
2023/04/12 03:56:04;;;;;;;8.27;2.95;;;;;;;5.42;65.38;100473.47;7391524;19;20003;-58
2023/04/12 03:58:29;;;;;;;11.00;2.72;;;;;;;5.43;65.45;100463.78;7394844;19;20044;-60
2023/04/12 04:00:56;;;;;;;7.28;2.80;;;;;;;5.51;65.04;100464.13;7394557;19;20062;-60
2023/04/12 04:03:25;;;;;;;7.80;3.00;;;;;;;5.41;65.56;100470.97;7393804;19;20595;-61
2023/04/12 04:05:52;;;;;;;10.13;2.80;;;;;;;5.40;65.62;100470.09;7395288;19;20469;-61
2023/04/12 04:08:18;;;;;;;10.40;2.90;;;;;;;5.28;66.08;100461.19;7395634;19;20055;-61
2023/04/12 04:10:43;;;;;;;10.20;3.15;;;;;;;5.20;66.09;100460.00;7393048;19;20016;-61
2023/04/12 04:13:09;;;;;;;6.70;2.75;;;;;;;5.03;67.01;100454.03;7394884;19;20350;-61
2023/04/12 04:15:34;;;;;;;9.23;2.83;;;;;;;5.11;66.73;100442.19;7395213;19;19998;-61
2023/04/12 04:18:00;;;;;;;9.13;3.08;;;;;;;5.15;66.64;100438.41;7394899;19;20003;-61
2023/04/12 04:20:25;;;;;;;11.85;3.30;;;;;;;5.10;66.84;100425.53;7394361;19;19999;-61
2023/04/12 04:22:52;;;;;;;7.72;2.90;;;;;;;5.22;66.43;100421.25;7393851;19;19999;-59
2023/04/12 04:25:18;;;;;;;6.53;2.95;;;;;;;5.12;66.66;100414.91;7393232;19;20026;-60
2023/04/12 04:27:44;;;;;;;12.23;2.97;;;;;;;5.14;66.70;100418.28;7392257;19;20493;-59
2023/04/12 04:30:11;;;;;;;9.00;3.25;;;;;;;5.16;66.41;100414.59;7393595;19;20007;-59
2023/04/12 04:32:37;;;;;;;9.68;2.95;;;;;;;5.06;66.85;100424.06;7392418;19;20001;-60
2023/04/12 04:35:04;;;;;;;9.13;2.83;;;;;;;4.97;67.24;100408.81;7394681;19;20496;-60
2023/04/12 04:37:32;;;;;;;9.32;3.20;;;;;;;4.98;66.94;100419.28;7394595;19;20009;-60
2023/04/12 04:39:57;;;;;;;10.90;3.38;;;;;;;5.06;66.79;100419.63;7394239;19;20030;-60
2023/04/12 04:42:23;;;;;;;11.57;2.80;;;;;;;4.95;66.96;100408.94;7392339;19;20002;-60
2023/04/12 04:45:02;;;;;;;9.23;2.92;;;;;;;5.06;66.73;100411.72;7391719;19;20467;-59
2023/04/12 04:47:29;;;;;;;9.05;3.00;;;;;;;5.06;66.59;100405.63;7393903;19;20040;-60
2023/04/12 04:49:56;;;;;;;9.13;3.20;;;;;;;5.12;66.35;100407.00;7392776;19;20539;-59
2023/04/12 04:52:22;;;;;;;8.50;3.03;;;;;;;5.05;66.89;100406.53;7394317;19;20006;-59
2023/04/12 04:54:48;;;;;;;8.98;2.83;;;;;;;4.94;67.24;100396.69;7391411;19;20007;-59
2023/04/12 04:57:14;;;;;;;9.65;3.28;;;;;;;5.07;66.72;100397.59;7394429;19;20482;-59
2023/04/12 04:59:40;;;;;;;8.57;3.00;;;;;;;5.05;66.78;100386.31;7391455;19;20410;-59
2023/04/12 05:02:06;;;;;;;10.35;3.20;;;;;;;5.11;66.54;100371.94;7392537;19;20007;-60
2023/04/12 05:04:32;;;;;;;8.35;2.88;;;;;;;5.21;66.00;100378.28;7390867;19;19999;-59
2023/04/12 05:06:57;;;;;;;10.77;3.40;;;;;;;5.26;65.73;100368.28;7393176;19;20029;-60
2023/04/12 05:09:23;;;;;;;11.23;3.13;;;;;;;5.23;65.98;100360.59;7392626;19;20331;-60
2023/04/12 05:11:48;;;;;;;8.00;2.88;;;;;;;5.40;65.54;100364.72;7393270;19;20303;-60
2023/04/12 05:14:14;;;;;;;7.35;2.78;;;;;;;5.29;65.40;100347.03;7392095;19;20058;-60
2023/04/12 05:16:39;;;;;;;10.35;3.08;;;;;;;5.29;65.42;100356.72;7393186;19;20009;-60
2023/04/12 05:19:05;;;;;;;7.68;2.90;;;;;;;5.39;65.11;100347.22;7391063;19;19995;-60
2023/04/12 05:21:32;;;;;;;10.10;2.92;;;;;;;5.46;65.41;100347.66;7391863;19;20022;-60
2023/04/12 05:23:58;;;;;;;8.43;2.83;;;;;;;5.60;64.95;100338.84;7390606;19;19995;-60
2023/04/12 05:26:23;;;;;;;8.48;3.00;;;;;;;5.72;64.68;100336.22;7390387;19;19995;-60
2023/04/12 05:28:49;;;;;;;11.10;3.30;;;;;;;5.85;64.19;100338.00;7391957;19;19991;-60
2023/04/12 05:31:15;;;;;;;7.80;2.90;;;;;;;5.64;64.33;100337.69;7391959;19;19990;-60
2023/04/12 05:33:40;;;;;;;7.70;2.50;;;;;;;5.57;64.69;100342.53;7391550;19;19998;-59
2023/04/12 05:36:06;;;;;;;10.38;3.45;;;;;;;5.67;64.27;100327.78;7392048;19;19995;-59
2023/04/12 05:38:31;;;;;;;10.85;3.15;;;;;;;5.75;64.23;100335.16;7391682;19;20334;-60
2023/04/12 05:40:57;;;;;;;10.10;3.08;;;;;;;5.76;64.36;100321.88;7391153;19;19991;-60
2023/04/12 05:43:23;;;;;;;10.10;2.58;;;;;;;5.72;64.19;100322.19;7389094;19;20006;-61
2023/04/12 05:45:49;;;;;;;8.60;2.70;;;;;;;5.81;64.03;100317.09;7391574;19;20015;-61
2023/04/12 05:48:15;;;;;;;8.25;2.60;;;;;;;5.80;64.09;100318.06;7392344;19;20010;-61
2023/04/12 05:50:40;;;;;;;8.57;2.45;;;;;;;5.85;63.74;100309.84;7390417;19;19995;-60
2023/04/12 05:53:07;;;;;;;10.15;2.85;;;;;;;5.99;63.44;100320.28;7391860;19;20003;-61
2023/04/12 05:55:32;;;;;;;11.48;2.80;;;;;;;5.82;63.64;100312.69;7391280;19;20103;-59
2023/04/12 05:57:58;;;;;;;6.85;2.60;;;;;;;5.87;64.01;100321.13;7391181;19;20023;-61
2023/04/12 06:00:23;;;;;;;7.82;2.72;;;;;;;6.01;63.44;100321.03;7390118;19;20463;-59
2023/04/12 06:02:49;;;;;;;6.78;2.67;;;;;;;6.15;63.13;100321.81;7394198;19;20470;-61
2023/04/12 06:05:18;;;;;;;8.48;2.90;;;;;;;6.18;63.39;100311.06;7391196;19;20415;-60
2023/04/12 06:07:47;;;;;;;8.25;2.80;;;;;;;6.18;63.17;100305.78;7390589;19;20066;-61
2023/04/12 06:10:15;;;;;;;9.68;2.75;;;;;;;6.21;63.22;100302.94;7389621;19;20070;-61
2023/04/12 06:12:40;;;;;;;12.05;3.15;;;;;;;6.19;63.44;100296.91;7389878;19;20007;-60
2023/04/12 06:15:06;;;;;;;8.35;2.50;;;;;;;6.25;63.55;100289.41;7391138;19;20434;-61
2023/04/12 06:17:33;;;;;;;12.70;3.03;;;;;;;6.27;63.36;100276.13;7391251;19;19998;-60
2023/04/12 06:19:59;;;;;;;9.65;2.30;;;;;;;6.34;63.56;100277.34;7391442;19;20007;-60
2023/04/12 06:22:24;;;;;;;11.32;2.97;;;;;;;6.33;63.70;100272.22;7388808;19;20301;-60
2023/04/12 06:24:50;;;;;;;9.63;3.33;;;;;;;6.23;63.81;100267.56;7389893;19;20032;-60
2023/04/12 06:27:15;;;;;;;9.10;2.80;;;;;;;6.25;63.95;100263.03;7390634;19;20339;-61
2023/04/12 06:29:41;;;;;;;7.82;2.38;;;;;;;6.28;63.82;100256.72;7390686;19;20013;-60
2023/04/12 06:32:06;;;;;;;8.15;2.83;;;;;;;6.29;63.80;100261.03;7386951;19;19999;-60
2023/04/12 06:34:32;;;;;;;8.77;2.38;;;;;;;6.40;63.54;100252.38;7388349;19;19999;-60
2023/04/12 06:36:58;;;;;;;9.10;2.58;;;;;;;6.44;63.85;100243.28;7389612;19;20002;-60
2023/04/12 06:39:24;;;;;;;9.18;2.65;;;;;;;6.57;63.26;100246.69;7389175;19;20114;-59
2023/04/12 06:41:49;;;;;;;11.30;3.00;;;;;;;6.45;63.28;100235.25;7386820;19;20362;-61
2023/04/12 06:44:15;;;;;;;8.80;2.80;;;;;;;6.30;63.51;100234.53;7388211;19;20474;-60
2023/04/12 06:46:41;;;;;;;14.52;3.53;;;;;;;6.24;64.00;100223.56;7390816;19;20006;-60
2023/04/12 06:49:07;;;;;;;8.60;2.78;;;;;;;6.45;63.78;100208.84;7389464;19;20069;-61
2023/04/12 06:51:35;;;;;;;7.43;2.50;;;;;;;6.66;63.13;100203.81;7389814;19;20002;-59
2023/04/12 06:54:01;;;;;;;8.85;2.47;;;;;;;6.71;63.14;100192.91;7387025;19;20013;-60
2023/04/12 06:56:26;;;;;;;8.45;2.40;;;;;;;6.72;63.04;100189.28;7394822;19;20003;-60
2023/04/12 06:58:52;;;;;;;7.95;2.60;;;;;;;6.68;63.00;100190.47;7397352;19;19994;-60
2023/04/12 07:01:18;;;;;;;7.68;2.42;;;;;;;6.91;62.61;100179.00;7395184;19;20467;-60
2023/04/12 07:03:43;;;;;;;6.47;2.35;;;;;;;6.95;62.12;100174.34;7395421;19;19998;-60
2023/04/12 07:06:09;;;;;;;6.28;2.22;;;;;;;6.90;62.34;100174.69;7397710;19;19994;-60
2023/04/12 07:08:35;;;;;;;7.90;2.50;;;;;;;7.00;62.39;100167.78;7396951;19;20003;-60
2023/04/12 07:11:01;;;;;;;9.65;2.50;;;;;;;7.05;61.89;100170.06;7396617;19;20002;-60
2023/04/12 07:13:27;;;;;;;9.07;3.25;;;;;;;7.04;61.86;100163.06;7395992;19;19994;-60
2023/04/12 07:15:53;;;;;;;9.65;3.20;;;;;;;7.10;61.83;100161.78;7397175;19;20502;-61
2023/04/12 07:18:19;;;;;;;8.35;2.50;;;;;;;7.24;61.58;100153.63;7396624;19;19990;-60
2023/04/12 07:20:47;;;;;;;14.32;3.50;;;;;;;7.46;61.11;100155.41;7395538;19;20002;-60
2023/04/12 07:23:13;;;;;;;10.23;3.22;;;;;;;7.39;61.04;100148.94;7396300;19;20006;-60
2023/04/12 07:25:38;;;;;;;9.40;2.95;;;;;;;7.64;60.29;100140.75;7395992;19;20409;-60
2023/04/12 07:28:04;;;;;;;10.10;3.08;;;;;;;7.78;60.28;100137.00;7395891;19;20032;-60
2023/04/12 07:30:30;;;;;;;8.88;2.88;;;;;;;7.90;59.93;100136.00;7395424;19;19995;-60
2023/04/12 07:32:56;;;;;;;7.13;2.80;;;;;;;7.98;59.91;100125.63;7395979;19;20028;-60
2023/04/12 07:35:22;;;;;;;7.70;2.33;;;;;;;7.97;59.76;100123.13;7396154;19;20345;-60
2023/04/12 07:37:47;;;;;;;9.57;3.15;;;;;;;8.10;60.01;100112.38;7395862;19;19991;-60
2023/04/12 07:40:13;;;;;;;8.70;2.97;;;;;;;8.08;59.75;100112.50;7394141;19;20025;-60
2023/04/12 07:42:38;;;;;;;7.80;2.40;;;;;;;8.04;59.85;100107.59;7395760;19;20002;-60
2023/04/12 07:45:05;;;;;;;7.00;2.58;;;;;;;7.99;60.54;100100.84;7395199;19;19990;-60
2023/04/12 07:47:31;;;;;;;9.90;2.95;;;;;;;8.00;60.33;100104.38;7396546;19;19999;-60
2023/04/12 07:49:57;;;;;;;8.85;2.70;;;;;;;8.01;60.38;100106.88;7395129;19;19995;-61
2023/04/12 07:52:24;;;;;;;16.80;3.20;;;;;;;7.92;61.02;100104.13;7395933;19;20315;-60
2023/04/12 07:54:49;;;;;;;5.50;2.40;;;;;;;7.91;61.08;100097.16;7393036;19;20006;-60
2023/04/12 07:57:15;;;;;;;8.23;2.20;;;;;;;7.82;61.54;100098.78;7391338;19;20007;-61
2023/04/12 07:59:41;;;;;;;8.98;2.28;;;;;;;7.85;61.73;100095.88;7394783;19;20013;-60
2023/04/12 08:02:06;;;;;;;10.10;2.65;;;;;;;7.89;61.54;100089.38;7392829;19;20014;-60
2023/04/12 08:04:32;;;;;;;9.82;3.25;;;;;;;7.95;62.08;100094.16;7392459;19;20007;-60
2023/04/12 08:06:57;;;;;;;6.47;2.45;;;;;;;7.91;63.58;100090.06;7393662;19;20042;-61
2023/04/12 08:09:23;;;;;;;8.85;2.38;;;;;;;8.07;63.44;100083.53;7394545;19;19999;-61
2023/04/12 08:11:49;;;;;;;6.70;2.70;;;;;;;8.29;62.86;100078.16;7392388;19;20589;-66
2023/04/12 08:14:15;;;;;;;9.20;2.60;;;;;;;8.34;62.59;100076.00;7393303;19;20029;-61
2023/04/12 08:16:41;;;;;;;9.95;2.90;;;;;;;8.47;63.35;100073.16;7394504;19;19994;-61
2023/04/12 08:19:06;;;;;;;11.20;3.55;;;;;;;8.46;63.96;100072.31;7393080;19;20003;-61
2023/04/12 08:21:32;;;;;;;11.55;3.40;;;;;;;8.51;63.51;100076.38;7392753;19;20020;-61
2023/04/12 08:23:58;;;;;;;5.30;2.13;;;;;;;8.40;63.82;100071.97;7392193;19;20003;-61
2023/04/12 08:26:25;;;;;;;8.05;2.30;;;;;;;8.37;64.40;100061.66;7393159;19;20002;-61
2023/04/12 08:28:51;;;;;;;9.00;2.40;;;;;;;8.49;64.76;100060.59;7393566;19;20003;-60
2023/04/12 08:31:17;;;;;;;6.70;2.72;;;;;;;8.49;65.07;100061.47;7394114;19;20002;-60
2023/04/12 08:33:42;;;;;;;10.00;2.53;;;;;;;8.34;65.53;100062.75;7390967;19;20327;-61
2023/04/12 08:36:09;;;;;;;11.40;2.95;;;;;;;8.33;66.14;100052.28;7393400;19;19994;-61
2023/04/12 08:38:36;;;;;;;9.00;2.50;;;;;;;8.37;65.65;100051.91;7393554;19;20110;-61
2023/04/12 08:41:03;;;;;;;10.85;2.75;;;;;;;8.47;65.87;100042.22;7391383;19;20006;-61
2023/04/12 08:43:31;;;;;;;8.23;2.40;;;;;;;8.50;66.27;100054.38;7393205;19;20471;-62
2023/04/12 08:45:58;;;;;;;9.73;2.80;;;;;;;8.31;67.74;100041.84;7392634;19;20003;-61
2023/04/12 08:48:25;;;;;;;8.15;2.70;;;;;;;8.24;68.15;100045.94;7391573;19;19999;-61
2023/04/12 08:50:51;;;;;;;8.48;2.72;;;;;;;8.35;68.24;100043.25;7391635;19;20023;-62
2023/04/12 08:53:17;;;;;;;8.18;2.58;;;;;;;8.39;68.74;100043.84;7390417;19;19995;-62
2023/04/12 08:55:46;;;;;;;9.82;3.08;;;;;;;8.37;69.66;100038.66;7390545;19;20049;-61
2023/04/12 08:58:15;;;;;;;7.82;2.97;;;;;;;8.34;70.14;100038.94;7390627;19;20376;-61
2023/04/12 09:00:41;;;;;;;9.40;3.15;;;;;;;8.29;70.77;100041.13;7391067;19;19998;-62
2023/04/12 09:03:09;;;;;;;10.38;2.97;;;;;;;8.29;71.88;100032.34;7390901;19;20025;-62
2023/04/12 09:05:34;;;;;;;6.75;2.70;;;;;;;8.43;71.04;100030.22;7390714;19;20002;-61
2023/04/12 09:08:01;;;;;;;8.10;2.45;;;;;;;8.41;71.21;100031.31;7391569;19;20443;-61
2023/04/12 09:10:37;;;;;;;8.02;2.72;;;;;;;8.34;72.13;100032.78;7390047;19;20007;-61
2023/04/12 09:13:06;;;;;;;9.30;2.53;;;;;;;8.18;72.28;100028.75;7393833;19;20006;-61
2023/04/12 09:15:33;;;;;;;7.43;2.47;;;;;;;8.35;72.33;100026.56;7390331;19;19999;-63
2023/04/12 09:18:03;;;;;;;6.85;2.47;;;;;;;8.51;72.77;100018.97;7388611;19;20083;-61
2023/04/12 09:20:29;;;;;;;7.43;2.75;;;;;;;8.50;72.04;100022.59;7390582;19;20534;-60
2023/04/12 09:22:54;;;;;;;5.80;2.20;;;;;;;8.50;72.40;100014.66;7391515;19;20010;-62
2023/04/12 09:25:36;;;;;;;7.15;2.45;;;;;;;8.41;72.85;100002.19;7389276;19;20495;-61
2023/04/12 09:28:16;;;;;;;5.90;2.95;;;;;;;8.39;73.77;100002.34;7392282;19;20352;-61
2023/04/12 09:30:41;;;;;;;5.65;2.20;;;;;;;8.28;73.93;99999.75;7391651;19;20006;-61
2023/04/12 09:33:11;;;;;;;6.68;2.10;;;;;;;8.51;73.23;99995.16;7390754;19;20017;-61
2023/04/12 09:35:38;;;;;;;7.38;2.28;;;;;;;8.51;73.39;99979.28;7389306;19;20455;-61
2023/04/12 09:38:07;;;;;;;6.78;2.42;;;;;;;8.42;73.90;99982.72;7392738;19;19998;-61
2023/04/12 09:40:35;;;;;;;6.07;2.28;;;;;;;8.33;74.43;99979.03;7388972;19;20006;-62
2023/04/12 09:43:02;;;;;;;7.50;2.53;;;;;;;8.21;75.03;99970.28;7393766;19;20016;-61
2023/04/12 09:45:30;;;;;;;6.20;2.42;;;;;;;8.19;74.62;99966.13;7390777;19;20002;-63
2023/04/12 09:47:56;;;;;;;5.20;2.20;;;;;;;8.26;74.87;99969.94;7391063;19;20022;-61
2023/04/12 09:50:32;;;;;;;7.68;2.40;;;;;;;8.24;75.15;99962.09;7390583;19;20002;-60
2023/04/12 09:53:00;;;;;;;8.90;2.70;;;;;;;8.35;74.82;99963.03;7389627;19;20459;-61
2023/04/12 09:55:28;;;;;;;10.77;3.58;;;;;;;8.66;73.83;99951.47;7390699;19;20006;-61
2023/04/12 09:57:54;;;;;;;8.15;3.08;;;;;;;8.71;74.11;99953.72;7390962;19;20010;-61
2023/04/12 10:00:22;;;;;;;10.10;4.00;;;;;;;8.76;74.43;99951.50;7389474;19;20429;-61
2023/04/12 10:02:50;;;;;;;17.33;8.45;;;;;;;8.63;74.89;99954.38;7390524;19;20013;-61
2023/04/12 10:05:18;;;;;;;7.90;2.40;;;;;;;8.54;75.57;99957.00;7389637;19;20494;-61
2023/04/12 10:07:44;;;;;;;4.63;1.92;;;;;;;8.52;74.91;99943.03;7389895;19;20006;-62
2023/04/12 10:10:12;;;;;;;5.05;2.33;;;;;;;8.36;75.98;99949.66;7390219;19;20482;-61
2023/04/12 10:12:42;;;;;;;4.50;1.88;;;;;;;8.38;75.98;99949.50;7391658;19;20014;-60
2023/04/12 10:15:14;;;;;;;7.38;2.72;;;;;;;8.50;75.60;99940.53;7390981;19;19995;-61
2023/04/12 10:17:43;;;;;;;5.78;1.98;;;;;;;8.60;75.26;99945.84;7387850;19;20074;-61
2023/04/12 10:20:09;;;;;;;5.53;2.17;;;;;;;8.51;75.77;99946.66;7389891;19;20006;-61
2023/04/12 10:22:37;;;;;;;5.85;2.00;;;;;;;8.40;76.60;99940.47;7387762;19;20026;-61
2023/04/12 10:25:04;;;;;;;6.50;2.45;;;;;;;8.36;77.15;99941.72;7389762;19;20002;-61
2023/04/12 10:27:30;;;;;;;6.03;1.92;;;;;;;8.45;76.95;99940.06;7391356;19;20062;-61
2023/04/12 10:30:23;;;;;;;4.25;1.90;;;;;;;8.44;76.76;99939.25;7393000;19;20016;-61
2023/04/12 10:33:09;;;;;;;5.60;2.47;;;;;;;8.63;77.39;99937.66;7396669;19;20003;-61
2023/04/12 10:35:46;;;;;;;3.80;2.10;;;;;;;8.63;76.42;99933.19;7396704;19;20003;-61
2023/04/12 10:38:12;;;;;;;8.55;2.20;;;;;;;8.53;77.24;99931.47;7398139;19;20003;-60
2023/04/12 10:40:57;;;;;;;4.68;2.00;;;;;;;8.44;77.65;99933.94;7395773;19;20019;-60
2023/04/12 10:43:27;;;;;;;7.43;2.30;;;;;;;8.37;77.95;99924.03;7399139;19;20002;-60
2023/04/12 10:45:52;;;;;;;4.75;1.98;;;;;;;8.29;77.78;99931.78;7396035;19;20006;-60
2023/04/12 10:48:37;;;;;;;5.40;2.00;;;;;;;8.33;78.37;99923.44;7396940;19;20010;-61
2023/04/12 10:51:13;;;;;;;5.97;2.00;;;;;;;8.46;77.34;99916.16;7396936;19;20039;-60
2023/04/12 10:53:39;;;;;;;5.38;2.20;;;;;;;8.42;77.61;99916.53;7396309;19;20564;-60
2023/04/12 10:56:30;;;;;;;6.28;2.03;;;;;;;8.30;77.62;99928.16;7394853;19;20022;-60
2023/04/12 10:59:00;;;;;;;6.60;1.80;;;;;;;8.25;77.79;99913.53;7395210;19;20078;-60
2023/04/12 11:01:26;;;;;;;3.90;1.80;;;;;;;8.29;77.94;99911.44;7394783;19;19998;-61
2023/04/12 11:04:13;;;;;;;11.10;2.67;;;;;;;8.27;79.32;99913.41;7393645;19;20009;-61
2023/04/12 11:06:51;;;;;;;6.82;1.90;;;;;;;8.03;78.87;99918.94;7393816;19;20001;-61
2023/04/12 11:09:31;;;;;;;5.65;1.77;;;;;;;7.98;79.38;99915.84;7395885;19;20003;-61
2023/04/12 11:12:10;;;;;;;5.57;2.03;;;;;;;8.00;79.30;99919.22;7398930;19;19994;-62
2023/04/12 11:14:50;;;;;;;3.78;1.73;;;;;;;8.07;79.01;99915.06;7398211;19;20256;-61
2023/04/12 11:17:15;;;;;;;5.35;1.85;;;;;;;8.05;79.35;99917.00;7395417;19;20006;-59
2023/04/12 11:19:53;;;;;;;6.32;2.05;;;;;;;8.28;78.34;99914.25;7395415;19;20003;-61
2023/04/12 11:22:20;;;;;;;4.68;1.67;;;;;;;8.16;78.29;99914.28;7394244;19;20010;-61
2023/04/12 11:24:51;;;;;;;6.20;2.22;;;;;;;8.05;78.55;99918.81;7393332;19;20065;-63
2023/04/12 11:27:19;;;;;;;5.05;1.80;;;;;;;8.22;77.91;99907.63;7395945;19;20065;-62
2023/04/12 11:29:47;;;;;;;3.65;1.60;;;;;;;8.18;78.52;99909.69;7395433;19;20077;-61
2023/04/12 11:32:13;;;;;;;6.30;2.03;;;;;;;7.98;79.22;99905.28;7394796;19;20486;-61
2023/04/12 11:34:41;;;;;;;6.18;2.15;;;;;;;8.10;79.37;99901.56;7393562;19;19999;-62
2023/04/12 11:37:08;;;;;;;5.35;1.83;;;;;;;8.25;79.00;99892.34;7393639;19;20001;-62